SondeTracker

Meteorological Radiosondes Database

Operations

Sounding was ended - last measurement: 2022-12-07 01:01:53z

MAP
About Radiosonde

Number: U3114538

Launch Site: Brasilia (BR)

Type: RS41-SGP

AUX: NO

Frequency: 403.001 MHz

Max Speed: 115 km/h at 13554 m

Average Speed: 39.96 km/h

Max Altitude: 19330 m

Average Ascent Speed: 5.72 m/s

Average Descent Speed: 8.85 m/s

Status: UNKNOWN

Status Changes
Launch Site Type AUX Frequency Status Finder Landing Point Description Changes made by
APRS Statistics

Received Frames: 150

First Frame [UTC]: 2022-12-06 23:37:22z

Last Frame [UTC]: 2022-12-07 01:01:53z

Receivers: PT2VHF

Flight Time: 01:24:31 h

Distance From First Measurement: 40.52 km

Nearest City: Águas Lindas de Goiás (BR) [10.73 km]

Nearest Hunter: [0.00 km]

Ground Altitude: 1085 m

Distance from QTH: 0.00 km

APRS Data
Receiver Number Date/Time [UTC] φ λ Course [°] Speed [km/h] Altitude [m] Description
PT2VHFU31145382022-12-07 01:01:53-15.663-48.2252278131511Clb=-9.2m/s t=19.8C h=70.2% p=852.2hPa 403.001 MHz Type=RS41-SGP ser=U3114538 Radiosonde
PT2VHFU31145382022-12-07 01:01:22-15.663-48.2239253191765Clb=-7.7m/s t=18.0C h=72.2% p=827.8hPa 403.001 MHz Type=RS41-SGP ser=U3114538 Radiosonde
PT2VHFU31145382022-12-07 01:00:54-15.6625-48.2225246172001Clb=-10.1m/s t=16.8C h=70.0% p=805.6hPa 403.001 MHz Type=RS41-SGP ser=U3114538 Radiosonde
PT2VHFU31145382022-12-07 01:00:53-15.6618-48.2215232132221Clb=-6.7m/s t=15.5C h=71.5% p=784.4hPa 403.001 MHz Type=RS41-SGP ser=U3114538 Radiosonde
PT2VHFU31145382022-12-07 01:00:51-15.6611-48.220823492464Clb=-10.7m/s t=14.2C h=71.1% p=762.7hPa 403.001 MHz Type=RS41-SGP ser=U3114538 Radiosonde
PT2VHFU31145382022-12-07 01:00:50-15.6604-48.2201203132729Clb=-9.6m/s t=12.0C h=79.2% p=739.3hPa 403.001 MHz Type=RS41-SGP ser=U3114538 Radiosonde
PT2VHFU31145382022-12-07 01:00:48-15.6595-48.2197223152968Clb=-6.3m/s t=10.2C h=85.9% p=718.6hPa 403.001 MHz Type=RS41-SGP ser=U3114538 Radiosonde
PT2VHFU31145382022-12-07 01:00:46-15.6585-48.219200153167Clb=-6.6m/s t=8.7C h=86.7% p=701.4hPa 403.001 MHz Type=RS41-SGP ser=U3114538 Radiosonde
PT2VHFU31145382022-12-07 01:00:37-15.6573-48.2187188153396Clb=-8.3m/s t=7.4C h=-1.0% p=-1.0hPa 403.001 MHz Type=RS41-SGP ser=U3114538 Radiosonde
PT2VHFU31145382022-12-07 01:00:29-15.656-48.2185183193614Clb=-5.9m/s t=-273.0C h=-1.0% p=-1.0hPa 403.001 MHz Type=RS41-SGP ser=U3114538 Radiosonde
PT2VHFU31145382022-12-07 00:59:59-15.6505-48.220113794980Clb=-9.8m/s t=-0.5C h=68.5% p=562.0hPa 403.001 MHz Type=RS41-SGP ser=U3114538 Radiosonde
PT2VHFU31145382022-12-07 00:58:37-15.649-48.2205169225339Clb=-9.2m/s t=-1.9C h=62.8% p=537.3hPa 403.001 MHz Type=RS41-SGP ser=U3114538 Radiosonde
PT2VHFU31145382022-12-07 00:56:32-15.6415-48.2203172246246Clb=-5.3m/s t=-8.0C h=81.4% p=478.7hPa 403.001 MHz Type=RS41-SGP ser=U3114538 Radiosonde
PT2VHFU31145382022-12-07 00:55:50-15.6407-48.2204183196347Clb=-7.5m/s t=-8.8C h=83.9% p=472.7hPa 403.001 MHz Type=RS41-SGP ser=U3114538 Radiosonde
PT2VHFU31145382022-12-07 00:55:08-15.6393-48.2204181156638Clb=-8.6m/s t=-10.4C h=87.6% p=455.5hPa 403.001 MHz Type=RS41-SGP ser=U3114538 Radiosonde
PT2VHFU31145382022-12-07 00:54:27-15.6381-48.220615696908Clb=-8.6m/s t=-11.5C h=81.4% p=439.6hPa 403.001 MHz Type=RS41-SGP ser=U3114538 Radiosonde
PT2VHFU31145382022-12-07 00:53:42-15.6373-48.220914867170Clb=-5.1m/s t=-13.4C h=88.5% p=424.9hPa 403.001 MHz Type=RS41-SGP ser=U3114538 Radiosonde
PT2VHFU31145382022-12-07 00:52:59-15.6368-48.221213797338Clb=-11.2m/s t=-14.6C h=90.6% p=415.8hPa 403.001 MHz Type=RS41-SGP ser=U3114538 Radiosonde
PT2VHFU31145382022-12-07 00:52:10-15.636-48.2212221117954Clb=-20.1m/s t=-18.5C h=91.0% p=383.7hPa 403.001 MHz Type=RS41-SGP ser=U3114538 Radiosonde
PT2VHFU31145382022-12-07 00:51:23-15.6354-48.2205252158386Clb=-18.3m/s t=-21.0C h=77.8% p=362.2hPa 403.001 MHz Type=RS41-SGP ser=U3114538 Radiosonde
PT2VHFU31145382022-12-07 00:50:37-15.6357-48.2198326118810Clb=-8.5m/s t=-24.0C h=73.3% p=341.0hPa 403.001 MHz Type=RS41-SGP ser=U3114538 Radiosonde
PT2VHFU31145382022-12-07 00:49:51-15.6372-48.2191334289089Clb=-6.6m/s t=-26.1C h=59.9% p=328.3hPa 403.001 MHz Type=RS41-SGP ser=U3114538 Radiosonde
PT2VHFU31145382022-12-07 00:49:06-15.6392-48.2181337229331Clb=-5.2m/s t=-28.0C h=72.3% p=317.7hPa 403.001 MHz Type=RS41-SGP ser=U3114538 Radiosonde
PT2VHFU31145382022-12-07 00:48:19-15.6422-48.2153306399854Clb=-13.0m/s t=-32.2C h=62.4% p=295.4hPa 403.001 MHz Type=RS41-SGP ser=U3114538 Radiosonde
PT2VHFU31145382022-12-07 00:47:33-15.6427-48.2145300419962Clb=-12.3m/s t=-33.1C h=65.3% p=291.1hPa 403.001 MHz Type=RS41-SGP ser=U3114538 Radiosonde
PT2VHFU31145382022-12-07 00:46:43-15.6446-48.21223213510301Clb=-11.3m/s t=-36.0C h=66.1% p=277.1hPa 403.001 MHz Type=RS41-SGP ser=U3114538 Radiosonde
PT2VHFU31145382022-12-07 00:45:56-15.6467-48.21073293110631Clb=-11.7m/s t=-38.8C h=69.4% p=264.4hPa 403.001 MHz Type=RS41-SGP ser=U3114538 Radiosonde
PT2VHFU31145382022-12-07 00:45:08-15.6487-48.20943243510975Clb=-12.3m/s t=-41.5C h=48.2% p=251.4hPa 403.001 MHz Type=RS41-SGP ser=U3114538 Radiosonde
PT2VHFU31145382022-12-07 00:44:23-15.6513-48.20783343911363Clb=-12.4m/s t=-44.9C h=68.0% p=237.3hPa 403.001 MHz Type=RS41-SGP ser=U3114538 Radiosonde
PT2VHFU31145382022-12-07 00:43:45-15.6542-48.20633344111736Clb=-11.6m/s t=-48.0C h=64.7% p=224.6hPa 403.001 MHz Type=RS41-SGP ser=U3114538 Radiosonde
PT2VHFU31145382022-12-07 00:43:14-15.6577-48.20493384612136Clb=-10.2m/s t=-51.7C h=63.3% p=211.1hPa 403.001 MHz Type=RS41-SGP ser=U3114538 Radiosonde
PT2VHFU31145382022-12-07 00:42:43-15.6606-48.20363375212384Clb=-7.3m/s t=-54.0C h=59.9% p=203.2hPa 403.001 MHz Type=RS41-SGP ser=U3114538 Radiosonde
PT2VHFU31145382022-12-07 00:42:14-15.6656-48.20143366112663Clb=-8.4m/s t=-56.5C h=58.8% p=194.5hPa 403.001 MHz Type=RS41-SGP ser=U3114538 Radiosonde
PT2VHFU31145382022-12-07 00:41:56-15.6693-48.19973346712860Clb=-6.8m/s t=-58.3C h=56.2% p=188.6hPa 403.001 MHz Type=RS41-SGP ser=U3114538 Radiosonde
PT2VHFU31145382022-12-07 00:41:54-15.6742-48.19723317413070Clb=-6.6m/s t=-60.3C h=56.0% p=182.4hPa 403.001 MHz Type=RS41-SGP ser=U3114538 Radiosonde
PT2VHFU31145382022-12-07 00:41:46-15.6794-48.19433317813271Clb=-6.5m/s t=-62.1C h=56.3% p=176.6hPa 403.001 MHz Type=RS41-SGP ser=U3114538 Radiosonde
PT2VHFU31145382022-12-07 00:41:38-15.6859-48.19083348313503Clb=-6.3m/s t=-64.2C h=55.4% p=170.1hPa 403.001 MHz Type=RS41-SGP ser=U3114538 Radiosonde
PT2VHFU31145382022-12-07 00:41:33-15.6911-48.18843388913668Clb=-6.4m/s t=-65.5C h=50.5% p=165.6hPa 403.001 MHz Type=RS41-SGP ser=U3114538 Radiosonde
PT2VHFU31145382022-12-07 00:41:31-15.6978-48.18573389313867Clb=-6.7m/s t=-66.7C h=45.3% p=160.2hPa 403.001 MHz Type=RS41-SGP ser=U3114538 Radiosonde
PT2VHFU31145382022-12-07 00:41:30-15.7048-48.182933510414067Clb=-6.4m/s t=-68.1C h=42.1% p=155.0hPa 403.001 MHz Type=RS41-SGP ser=U3114538 Radiosonde
PT2VHFU31145382022-12-07 00:41:28-15.7117-48.1793269314259Clb=-6.7m/s t=-68.4C h=36.9% p=150.2hPa 403.001 MHz Type=RS41-SGP ser=U3114538 Radiosonde
PT2VHFU31145382022-12-07 00:41:26-15.7167-48.17493177014464Clb=-6.2m/s t=-68.6C h=30.4% p=145.1hPa 403.001 MHz Type=RS41-SGP ser=U3114538 Radiosonde
PT2VHFU31145382022-12-07 00:41:24-15.72-48.17093035614671Clb=-7.1m/s t=-69.3C h=28.1% p=140.2hPa 403.001 MHz Type=RS41-SGP ser=U3114538 Radiosonde
PT2VHFU31145382022-12-07 00:41:23-15.7223-48.16682995614888Clb=-7.4m/s t=-71.1C h=31.2% p=135.2hPa 403.001 MHz Type=RS41-SGP ser=U3114538 Radiosonde
PT2VHFU31145382022-12-07 00:41:04-15.7243-48.1633004415126Clb=-7.7m/s t=-73.1C h=33.7% p=129.9hPa 403.001 MHz Type=RS41-SGP ser=U3114538 Radiosonde
PT2VHFU31145382022-12-07 00:40:14-15.7261-48.16023004115366Clb=-7.8m/s t=-75.2C h=34.9% p=124.7hPa 403.001 MHz Type=RS41-SGP ser=U3114538 Radiosonde
PT2VHFU31145382022-12-07 00:39:28-15.7277-48.1572973915634Clb=-8.2m/s t=-76.8C h=33.5% p=119.1hPa 403.001 MHz Type=RS41-SGP ser=U3114538 Radiosonde
PT2VHFU31145382022-12-07 00:38:40-15.7292-48.15443014815875Clb=-8.5m/s t=-78.2C h=30.5% p=114.2hPa 403.001 MHz Type=RS41-SGP ser=U3114538 Radiosonde
PT2VHFU31145382022-12-07 00:37:51-15.7309-48.15012855916141Clb=-9.2m/s t=-78.6C h=25.7% p=109.0hPa 403.001 MHz Type=RS41-SGP ser=U3114538 Radiosonde
PT2VHFU31145382022-12-07 00:36:58-15.7325-48.1452866316408Clb=-8.6m/s t=-79.3C h=22.0% p=104.1hPa 403.001 MHz Type=RS41-SGP ser=U3114538 Radiosonde
PT2VHFU31145382022-12-07 00:36:07-15.7346-48.14042967616670Clb=-8.2m/s t=-78.7C h=20.8% p=99.3hPa 403.001 MHz Type=RS41-SGP ser=U3114538 Radiosonde
PT2VHFU31145382022-12-07 00:35:17-15.7364-48.1352886516930Clb=-8.7m/s t=-76.5C h=17.1% p=94.9hPa 403.001 MHz Type=RS41-SGP ser=U3114538 Radiosonde
PT2VHFU31145382022-12-07 00:34:29-15.7369-48.132535217210Clb=-8.8m/s t=-76.0C h=15.2% p=90.5hPa 403.001 MHz Type=RS41-SGP ser=U3114538 Radiosonde
PT2VHFU31145382022-12-07 00:33:38-15.7362-48.12672624817463Clb=-9.1m/s t=-75.9C h=14.2% p=86.7hPa 403.001 MHz Type=RS41-SGP ser=U3114538 Radiosonde
PT2VHFU31145382022-12-07 00:32:44-15.7366-48.1232894417752Clb=-9.3m/s t=-75.8C h=14.1% p=82.5hPa 403.001 MHz Type=RS41-SGP ser=U3114538 Radiosonde
PT2VHFU31145382022-12-07 00:31:46-15.7372-48.11882665618045Clb=-9.8m/s t=-75.6C h=12.6% p=78.5hPa 403.001 MHz Type=RS41-SGP ser=U3114538 Radiosonde
PT2VHFU31145382022-12-07 00:30:55-15.7372-48.11452714818352Clb=-10.1m/s t=-76.0C h=12.3% p=74.5hPa 403.001 MHz Type=RS41-SGP ser=U3114538 Radiosonde
PT2VHFU31145382022-12-07 00:30:03-15.737-48.11062733518677Clb=-10.6m/s t=-73.6C h=10.2% p=70.4hPa 403.001 MHz Type=RS41-SGP ser=U3114538 Radiosonde
PT2VHFU31145382022-12-07 00:29:11-15.7372-48.1072846318995Clb=-10.6m/s t=-74.7C h=11.1% p=66.7hPa 403.001 MHz Type=RS41-SGP ser=U3114538 Radiosonde
PT2VHFU31145382022-12-07 00:28:19-15.738-48.10282755719330Clb=-11.0m/s t=-73.8C h=10.4% p=63.0hPa 403.001 MHz Type=RS41-SGP ser=U3114538 Radiosonde
PT2VHFU31145382022-12-07 00:27:43-15.7394-48.06512705618278Clb=6.4m/s t=-76.1C h=18.4% p=75.3hPa 403.001 MHz Type=RS41-SGP ser=U3114538 Radiosonde
PT2VHFU31145382022-12-07 00:27:40-15.7391-48.06042635918120Clb=5.8m/s t=-75.5C h=18.7% p=77.3hPa 403.001 MHz Type=RS41-SGP ser=U3114538 Radiosonde
PT2VHFU31145382022-12-07 00:27:04-15.7386-48.05572686117965Clb=5.4m/s t=-75.2C h=19.9% p=79.5hPa 403.001 MHz Type=RS41-SGP ser=U3114538 Radiosonde
PT2VHFU31145382022-12-07 00:27:00-15.739-48.05092874617798Clb=6.1m/s t=-75.9C h=22.0% p=81.7hPa 403.001 MHz Type=RS41-SGP ser=U3114538 Radiosonde
PT2VHFU31145382022-12-07 00:26:58-15.7395-48.04762734817651Clb=5.2m/s t=-75.8C h=23.0% p=83.8hPa 403.001 MHz Type=RS41-SGP ser=U3114538 Radiosonde
PT2VHFU31145382022-12-07 00:26:50-15.739-48.04342605417492Clb=5.9m/s t=-76.1C h=25.8% p=86.1hPa 403.001 MHz Type=RS41-SGP ser=U3114538 Radiosonde
PT2VHFU31145382022-12-07 00:26:01-15.7378-48.03872475017286Clb=5.9m/s t=-75.8C h=28.6% p=89.2hPa 403.001 MHz Type=RS41-SGP ser=U3114538 Radiosonde
PT2VHFU31145382022-12-07 00:25:09-15.7371-48.03532675917159Clb=3.6m/s t=-76.2C h=31.2% p=91.2hPa 403.001 MHz Type=RS41-SGP ser=U3114538 Radiosonde
PT2VHFU31145382022-12-07 00:24:17-15.738-48.03012926516990Clb=5.5m/s t=-77.0C h=36.0% p=93.9hPa 403.001 MHz Type=RS41-SGP ser=U3114538 Radiosonde
PT2VHFU31145382022-12-07 00:23:23-15.7399-48.02442887216832Clb=5.4m/s t=-77.8C h=38.3% p=96.6hPa 403.001 MHz Type=RS41-SGP ser=U3114538 Radiosonde
PT2VHFU31145382022-12-07 00:22:27-15.7419-48.01933036916694Clb=4.9m/s t=-79.3C h=40.9% p=98.9hPa 403.001 MHz Type=RS41-SGP ser=U3114538 Radiosonde
PT2VHFU31145382022-12-07 00:21:34-15.7446-48.01492925916523Clb=4.3m/s t=-80.0C h=45.1% p=101.9hPa 403.001 MHz Type=RS41-SGP ser=U3114538 Radiosonde
PT2VHFU31145382022-12-07 00:20:41-15.746-48.01072856716369Clb=3.6m/s t=-78.9C h=44.6% p=104.7hPa 403.001 MHz Type=RS41-SGP ser=U3114538 Radiosonde
PT2VHFU31145382022-12-07 00:19:47-15.7484-48.00322855016115Clb=4.7m/s t=-78.6C h=45.0% p=109.5hPa 403.001 MHz Type=RS41-SGP ser=U3114538 Radiosonde
PT2VHFU31145382022-12-07 00:18:55-15.7497-47.99992965615984Clb=4.5m/s t=-78.2C h=44.1% p=112.0hPa 403.001 MHz Type=RS41-SGP ser=U3114538 Radiosonde
PT2VHFU31145382022-12-07 00:18:01-15.7524-47.99623083515758Clb=4.8m/s t=-77.6C h=40.8% p=116.5hPa 403.001 MHz Type=RS41-SGP ser=U3114538 Radiosonde
PT2VHFU31145382022-12-07 00:17:05-15.7529-47.99553043015703Clb=4.3m/s t=-77.1C h=38.8% p=117.7hPa 403.001 MHz Type=RS41-SGP ser=U3114538 Radiosonde
PT2VHFU31145382022-12-07 00:16:11-15.754-47.99332953715544Clb=5.1m/s t=-75.8C h=34.6% p=120.9hPa 403.001 MHz Type=RS41-SGP ser=U3114538 Radiosonde
PT2VHFU31145382022-12-07 00:15:20-15.7557-47.98893003915270Clb=2.7m/s t=-73.8C h=29.1% p=126.6hPa 403.001 MHz Type=RS41-SGP ser=U3114538 Radiosonde
PT2VHFU31145382022-12-07 00:14:26-15.7581-47.98493084415047Clb=5.8m/s t=-72.4C h=27.2% p=131.6hPa 403.001 MHz Type=RS41-SGP ser=U3114538 Radiosonde
PT2VHFU31145382022-12-07 00:13:34-15.7582-47.98463003915032Clb=5.1m/s t=-72.2C h=27.1% p=132.0hPa 403.001 MHz Type=RS41-SGP ser=U3114538 Radiosonde
PT2VHFU31145382022-12-07 00:12:13-15.7621-47.97662905914693Clb=4.7m/s t=-69.1C h=28.8% p=139.7hPa 403.001 MHz Type=RS41-SGP ser=U3114538 Radiosonde
PT2VHFU31145382022-12-07 00:11:39-15.764-47.97292996314551Clb=5.5m/s t=-68.0C h=33.5% p=143.0hPa 403.001 MHz Type=RS41-SGP ser=U3114538 Radiosonde
PT2VHFU31145382022-12-07 00:11:08-15.7668-47.96893297614374Clb=6.5m/s t=-68.0C h=47.3% p=147.2hPa 403.001 MHz Type=RS41-SGP ser=U3114538 Radiosonde
PT2VHFU31145382022-12-07 00:10:49-15.7722-47.964733210614129Clb=5.6m/s t=-68.1C h=51.2% p=153.3hPa 403.001 MHz Type=RS41-SGP ser=U3114538 Radiosonde
PT2VHFU31145382022-12-07 00:10:39-15.7791-47.960332810713940Clb=5.9m/s t=-67.5C h=54.0% p=158.2hPa 403.001 MHz Type=RS41-SGP ser=U3114538 Radiosonde
PT2VHFU31145382022-12-07 00:10:04-15.7867-47.956232710913758Clb=3.0m/s t=-65.9C h=58.8% p=163.0hPa 403.001 MHz Type=RS41-SGP ser=U3114538 Radiosonde
PT2VHFU31145382022-12-07 00:09:57-15.7939-47.952333811513554Clb=8.0m/s t=-64.2C h=62.5% p=168.7hPa 403.001 MHz Type=RS41-SGP ser=U3114538 Radiosonde
PT2VHFU31145382022-12-07 00:09:49-15.8019-47.948232710413401Clb=5.1m/s t=-62.1C h=63.3% p=175.2hPa 403.001 MHz Type=RS41-SGP ser=U3114538 Radiosonde
PT2VHFU31145382022-12-07 00:09:47-15.8092-47.94523479813075Clb=7.1m/s t=-59.9C h=60.7% p=181.8hPa 403.001 MHz Type=RS41-SGP ser=U3114538 Radiosonde
PT2VHFU31145382022-12-07 00:09:45-15.8158-47.94283308512851Clb=2.7m/s t=-57.8C h=61.2% p=188.5hPa 403.001 MHz Type=RS41-SGP ser=U3114538 Radiosonde
PT2VHFU31145382022-12-07 00:09:43-15.8223-47.94063437212647Clb=6.0m/s t=-55.8C h=64.9% p=194.7hPa 403.001 MHz Type=RS41-SGP ser=U3114538 Radiosonde
PT2VHFU31145382022-12-07 00:09:42-15.8284-47.93843428712402Clb=6.5m/s t=-53.8C h=59.8% p=202.1hPa 403.001 MHz Type=RS41-SGP ser=U3114538 Radiosonde
PT2VHFU31145382022-12-07 00:09:40-15.8336-47.93623387012223Clb=6.5m/s t=-52.3C h=52.9% p=207.9hPa 403.001 MHz Type=RS41-SGP ser=U3114538 Radiosonde
PT2VHFU31145382022-12-07 00:09:00-15.8383-47.93393346112039Clb=4.2m/s t=-50.7C h=50.1% p=213.7hPa 403.001 MHz Type=RS41-SGP ser=U3114538 Radiosonde
PT2VHFU31145382022-12-07 00:08:10-15.8428-47.93193365711871Clb=5.3m/s t=-49.3C h=46.2% p=219.3hPa 403.001 MHz Type=RS41-SGP ser=U3114538 Radiosonde
PT2VHFU31145382022-12-07 00:07:20-15.8472-47.92993316311707Clb=7.1m/s t=-47.9C h=41.6% p=224.9hPa 403.001 MHz Type=RS41-SGP ser=U3114538 Radiosonde
PT2VHFU31145382022-12-07 00:06:28-15.8512-47.92813334811521Clb=5.6m/s t=-46.3C h=42.6% p=231.2hPa 403.001 MHz Type=RS41-SGP ser=U3114538 Radiosonde
PT2VHFU31145382022-12-07 00:05:33-15.8546-47.92633354811355Clb=4.3m/s t=-44.8C h=45.1% p=236.9hPa 403.001 MHz Type=RS41-SGP ser=U3114538 Radiosonde
PT2VHFU31145382022-12-07 00:04:42-15.8578-47.92463333711185Clb=4.1m/s t=-43.5C h=60.8% p=243.1hPa 403.001 MHz Type=RS41-SGP ser=U3114538 Radiosonde
PT2VHFU31145382022-12-07 00:03:53-15.8606-47.92343403511037Clb=7.9m/s t=-42.3C h=69.5% p=248.6hPa 403.001 MHz Type=RS41-SGP ser=U3114538 Radiosonde
PT2VHFU31145382022-12-07 00:03:02-15.8629-47.92223332610856Clb=6.0m/s t=-40.6C h=61.3% p=255.2hPa 403.001 MHz Type=RS41-SGP ser=U3114538 Radiosonde
PT2VHFU31145382022-12-07 00:02:12-15.8653-47.92073213910682Clb=7.1m/s t=-39.1C h=59.2% p=261.7hPa 403.001 MHz Type=RS41-SGP ser=U3114538 Radiosonde
PT2VHFU31145382022-12-07 00:01:17-15.8675-47.9193263310519Clb=4.4m/s t=-37.8C h=68.1% p=268.0hPa 403.001 MHz Type=RS41-SGP ser=U3114538 Radiosonde
PT2VHFU31145382022-12-07 00:00:24-15.8697-47.91723403710357Clb=3.3m/s t=-36.6C h=69.2% p=274.1hPa 403.001 MHz Type=RS41-SGP ser=U3114538 Radiosonde
PT2VHFU31145382022-12-06 23:59:43-15.8722-47.91563304410211Clb=5.4m/s t=-35.4C h=76.0% p=280.1hPa 403.001 MHz Type=RS41-SGP ser=U3114538 Radiosonde
PT2VHFU31145382022-12-06 23:59:38-15.8747-47.91383244810013Clb=8.4m/s t=-33.7C h=64.4% p=288.0hPa 403.001 MHz Type=RS41-SGP ser=U3114538 Radiosonde
PT2VHFU31145382022-12-06 23:59:36-15.877-47.911313379836Clb=4.1m/s t=-32.4C h=69.1% p=295.5hPa 403.001 MHz Type=RS41-SGP ser=U3114538 Radiosonde
PT2VHFU31145382022-12-06 23:59:34-15.8792-47.9084312359663Clb=5.8m/s t=-30.9C h=70.9% p=302.7hPa 403.001 MHz Type=RS41-SGP ser=U3114538 Radiosonde
PT2VHFU31145382022-12-06 23:59:26-15.8811-47.9067307159500Clb=4.3m/s t=-29.5C h=70.5% p=309.8hPa 403.001 MHz Type=RS41-SGP ser=U3114538 Radiosonde
PT2VHFU31145382022-12-06 23:59:01-15.8826-47.9052334229294Clb=7.0m/s t=-27.7C h=79.0% p=318.7hPa 403.001 MHz Type=RS41-SGP ser=U3114538 Radiosonde
PT2VHFU31145382022-12-06 23:58:59-15.8842-47.904316199118Clb=5.4m/s t=-26.3C h=84.6% p=326.5hPa 403.001 MHz Type=RS41-SGP ser=U3114538 Radiosonde
PT2VHFU31145382022-12-06 23:58:44-15.8858-47.9033338228939Clb=7.2m/s t=-25.1C h=85.4% p=334.6hPa 403.001 MHz Type=RS41-SGP ser=U3114538 Radiosonde
PT2VHFU31145382022-12-06 23:57:53-15.8871-47.9029333178758Clb=7.6m/s t=-24.3C h=86.7% p=342.9hPa 403.001 MHz Type=RS41-SGP ser=U3114538 Radiosonde
PT2VHFU31145382022-12-06 23:56:58-15.8882-47.9026327178546Clb=9.9m/s t=-22.7C h=83.5% p=352.9hPa 403.001 MHz Type=RS41-SGP ser=U3114538 Radiosonde
PT2VHFU31145382022-12-06 23:56:06-15.8892-47.90220198349Clb=6.3m/s t=-21.1C h=81.2% p=362.4hPa 403.001 MHz Type=RS41-SGP ser=U3114538 Radiosonde
PT2VHFU31145382022-12-06 23:55:16-15.8892-47.902116778149Clb=5.8m/s t=-19.5C h=88.7% p=372.4hPa 403.001 MHz Type=RS41-SGP ser=U3114538 Radiosonde
PT2VHFU31145382022-12-06 23:54:28-15.8885-47.902172157950Clb=5.4m/s t=-18.0C h=85.0% p=382.4hPa 403.001 MHz Type=RS41-SGP ser=U3114538 Radiosonde
PT2VHFU31145382022-12-06 23:53:38-15.8879-47.901725397733Clb=6.2m/s t=-16.9C h=92.8% p=393.6hPa 403.001 MHz Type=RS41-SGP ser=U3114538 Radiosonde
PT2VHFU31145382022-12-06 23:52:46-15.8871-47.901214247526Clb=5.0m/s t=-15.5C h=87.6% p=404.4hPa 403.001 MHz Type=RS41-SGP ser=U3114538 Radiosonde
PT2VHFU31145382022-12-06 23:51:57-15.8857-47.9006207227333Clb=5.6m/s t=-14.4C h=89.5% p=414.9hPa 403.001 MHz Type=RS41-SGP ser=U3114538 Radiosonde
PT2VHFU31145382022-12-06 23:51:28-15.8844-47.8997253137155Clb=6.2m/s t=-13.4C h=91.8% p=424.7hPa 403.001 MHz Type=RS41-SGP ser=U3114538 Radiosonde
PT2VHFU31145382022-12-06 23:51:17-15.8837-47.8992216136963Clb=7.9m/s t=-12.6C h=97.1% p=435.7hPa 403.001 MHz Type=RS41-SGP ser=U3114538 Radiosonde
PT2VHFU31145382022-12-06 23:50:57-15.8825-47.8989153116775Clb=5.5m/s t=-11.8C h=98.3% p=446.2hPa 403.001 MHz Type=RS41-SGP ser=U3114538 Radiosonde
PT2VHFU31145382022-12-06 23:50:55-15.8812-47.8985185226595Clb=9.7m/s t=-10.7C h=94.3% p=456.8hPa 403.001 MHz Type=RS41-SGP ser=U3114538 Radiosonde
PT2VHFU31145382022-12-06 23:50:53-15.88-47.8984180156418Clb=6.0m/s t=-9.3C h=92.2% p=467.5hPa 403.001 MHz Type=RS41-SGP ser=U3114538 Radiosonde
PT2VHFU31145382022-12-06 23:50:52-15.8788-47.8982209206226Clb=5.6m/s t=-8.0C h=87.9% p=479.1hPa 403.001 MHz Type=RS41-SGP ser=U3114538 Radiosonde
PT2VHFU31145382022-12-06 23:50:37-15.8775-47.898149226034Clb=5.5m/s t=-6.9C h=86.6% p=490.7hPa 403.001 MHz Type=RS41-SGP ser=U3114538 Radiosonde
PT2VHFU31145382022-12-06 23:49:51-15.8762-47.8979187335862Clb=4.9m/s t=-5.8C h=84.9% p=501.6hPa 403.001 MHz Type=RS41-SGP ser=U3114538 Radiosonde
PT2VHFU31145382022-12-06 23:49:03-15.8745-47.8981229175674Clb=7.4m/s t=-5.1C h=85.8% p=513.6hPa 403.001 MHz Type=RS41-SGP ser=U3114538 Radiosonde
PT2VHFU31145382022-12-06 23:48:15-15.8732-47.898812895496Clb=6.3m/s t=-4.8C h=85.1% p=525.6hPa 403.001 MHz Type=RS41-SGP ser=U3114538 Radiosonde
PT2VHFU31145382022-12-06 23:47:33-15.8722-47.8994120195297Clb=7.1m/s t=-2.9C h=68.7% p=539.0hPa 403.001 MHz Type=RS41-SGP ser=U3114538 Radiosonde
PT2VHFU31145382022-12-06 23:46:40-15.8713-47.900111345101Clb=9.4m/s t=-1.3C h=68.5% p=552.4hPa 403.001 MHz Type=RS41-SGP ser=U3114538 Radiosonde
PT2VHFU31145382022-12-06 23:45:51-15.8706-47.9003168204903Clb=5.3m/s t=0.0C h=66.6% p=566.2hPa 403.001 MHz Type=RS41-SGP ser=U3114538 Radiosonde
PT2VHFU31145382022-12-06 23:45:01-15.8695-47.9007167174710Clb=8.6m/s t=1.4C h=65.7% p=579.7hPa 403.001 MHz Type=RS41-SGP ser=U3114538 Radiosonde
PT2VHFU31145382022-12-06 23:44:15-15.8685-47.9013179114527Clb=6.9m/s t=2.1C h=65.3% p=593.2hPa 403.001 MHz Type=RS41-SGP ser=U3114538 Radiosonde
PT2VHFU31145382022-12-06 23:43:40-15.8677-47.9024179194342Clb=6.5m/s t=2.6C h=78.0% p=606.8hPa 403.001 MHz Type=RS41-SGP ser=U3114538 Radiosonde
PT2VHFU31145382022-12-06 23:43:26-15.8666-47.9033161224147Clb=6.8m/s t=3.1C h=83.4% p=621.4hPa 403.001 MHz Type=RS41-SGP ser=U3114538 Radiosonde
PT2VHFU31145382022-12-06 23:43:01-15.8651-47.9043160303965Clb=8.0m/s t=3.5C h=83.4% p=635.4hPa 403.001 MHz Type=RS41-SGP ser=U3114538 Radiosonde
PT2VHFU31145382022-12-06 23:42:59-15.8638-47.9052123153774Clb=4.6m/s t=4.5C h=90.1% p=650.5hPa 403.001 MHz Type=RS41-SGP ser=U3114538 Radiosonde
PT2VHFU31145382022-12-06 23:42:22-15.8625-47.9053194153580Clb=6.2m/s t=6.0C h=80.9% p=666.0hPa 403.001 MHz Type=RS41-SGP ser=U3114538 Radiosonde
PT2VHFU31145382022-12-06 23:41:35-15.8615-47.9053171193388Clb=6.7m/s t=7.4C h=82.7% p=681.8hPa 403.001 MHz Type=RS41-SGP ser=U3114538 Radiosonde
PT2VHFU31145382022-12-06 23:40:48-15.8605-47.905425943197Clb=6.9m/s t=8.6C h=87.6% p=697.4hPa 403.001 MHz Type=RS41-SGP ser=U3114538 Radiosonde
PT2VHFU31145382022-12-06 23:40:02-15.8596-47.905428363011Clb=5.9m/s t=10.1C h=81.9% p=713.1hPa 403.001 MHz Type=RS41-SGP ser=U3114538 Radiosonde
PT2VHFU31145382022-12-06 23:39:31-15.859-47.90615962829Clb=6.0m/s t=11.2C h=78.6% p=729.1hPa 403.001 MHz Type=RS41-SGP ser=U3114538 Radiosonde
PT2VHFU31145382022-12-06 23:39:01-15.8588-47.90618022623Clb=7.4m/s t=12.6C h=74.8% p=747.0hPa 403.001 MHz Type=RS41-SGP ser=U3114538 Radiosonde
PT2VHFU31145382022-12-06 23:38:30-15.8582-47.9057194112426Clb=8.4m/s t=14.0C h=78.7% p=764.3hPa 403.001 MHz Type=RS41-SGP ser=U3114538 Radiosonde
PT2VHFU31145382022-12-06 23:38:15-15.8579-47.905718292226Clb=6.7m/s t=15.5C h=73.2% p=782.7hPa 403.001 MHz Type=RS41-SGP ser=U3114538 Radiosonde
PT2VHFU31145382022-12-06 23:38:04-15.8577-47.90568462024Clb=8.6m/s t=16.8C h=74.1% p=801.3hPa 403.001 MHz Type=RS41-SGP ser=U3114538 Radiosonde
PT2VHFU31145382022-12-06 23:37:22-15.8577-47.9051304131845Clb=5.9m/s t=18.2C h=-1.0% p=818.0hPa 403.001 MHz Type=RS41-SGP ser=U3114538 Radiosonde